Time;durP1;ratioP1;P1;durP2;ratioP2;P2;SDS_P1;SDS_P2;PMS_P1;PMS_P2;Temp;Humidity;BMP_temperature;BMP_pressure;BME280_temperature;BME280_humidity;BME280_pressure;Samples;Min_cycle;Max_cycle;Signal;HPM_P1;HPM_P2
2022/08/28 00:01:59;;;;;;;13.87;9.77;;;;;;;22.24;67.14;97853.34;8254666;28;20259;-79
2022/08/28 00:06:04;;;;;;;14.30;10.87;;;;;;;22.16;66.66;97861.97;8254898;28;20409;-79
2022/08/28 00:10:09;;;;;;;18.67;11.13;;;;;;;22.12;67.08;97854.47;8254470;28;20242;-79
2022/08/28 00:14:12;;;;;;;15.53;10.27;;;;;;;22.14;67.24;97857.81;8254309;28;20241;-79
2022/08/28 00:18:15;;;;;;;14.40;10.47;;;;;;;22.11;66.84;97858.09;8254334;28;20237;-79
2022/08/28 00:22:20;;;;;;;12.00;9.47;;;;;;;22.10;66.68;97861.69;8254798;28;20239;-80
2022/08/28 00:30:41;;;;;;;16.23;10.47;;;;;;;21.97;66.67;97852.31;8256192;28;20242;-79
2022/08/28 00:34:44;;;;;;;12.30;9.37;;;;;;;22.04;66.79;97847.28;8254844;28;20238;-79
2022/08/28 00:38:49;;;;;;;11.73;9.20;;;;;;;21.95;67.13;97846.34;8253550;28;20261;-78
2022/08/28 00:42:53;;;;;;;14.50;10.00;;;;;;;21.90;66.92;97850.41;8254102;28;20234;-79
2022/08/28 00:46:57;;;;;;;16.97;10.10;;;;;;;21.89;67.30;97852.19;8256403;28;20234;-79
2022/08/28 00:55:25;;;;;;;13.60;9.07;;;;;;;21.86;66.80;97849.84;8257283;28;20537;-79
2022/08/28 00:59:27;;;;;;;13.37;9.47;;;;;;;21.86;66.96;97852.47;8257647;28;20234;-79
2022/08/28 01:03:31;;;;;;;13.13;9.47;;;;;;;21.86;66.42;97852.47;8258055;28;20405;-79
2022/08/28 01:07:34;;;;;;;13.63;9.40;;;;;;;21.88;66.82;97852.34;8256703;28;20234;-79
2022/08/28 01:11:39;;;;;;;11.90;9.60;;;;;;;21.90;66.70;97851.22;8253972;28;20538;-79
2022/08/28 01:15:42;;;;;;;15.07;10.30;;;;;;;21.86;66.26;97849.84;8253468;28;20241;-79
2022/08/28 01:19:47;;;;;;;12.93;8.90;;;;;;;21.93;66.68;97853.53;8252991;28;20245;-79
2022/08/28 01:23:53;;;;;;;12.83;8.70;;;;;;;21.84;66.81;97851.78;8252745;28;20242;-79
2022/08/28 01:27:57;;;;;;;14.43;9.40;;;;;;;21.81;66.55;97854.69;8253531;28;20230;-79
2022/08/28 01:31:59;;;;;;;13.50;9.90;;;;;;;21.81;66.65;97858.16;8252464;28;20237;-79
2022/08/28 01:36:03;;;;;;;13.27;9.30;;;;;;;21.78;66.51;97855.81;8252391;28;20246;-79
2022/08/28 01:40:09;;;;;;;12.67;9.60;;;;;;;21.75;66.54;97853.47;8252234;28;20241;-79
2022/08/28 01:44:13;;;;;;;14.10;9.13;;;;;;;21.69;66.65;97845.31;8252528;28;20297;-79
2022/08/28 01:48:20;;;;;;;14.33;9.67;;;;;;;21.69;66.51;97853.22;8252522;28;20236;-80
2022/08/28 01:52:23;;;;;;;15.13;9.93;;;;;;;21.64;66.51;97843.91;8251602;28;20236;-79
2022/08/28 01:56:29;;;;;;;14.73;10.43;;;;;;;21.67;66.55;97851.53;8251341;28;20249;-79
2022/08/28 02:00:32;;;;;;;15.90;9.30;;;;;;;21.62;66.50;97845.84;8251853;28;20241;-79
2022/08/28 02:04:35;;;;;;;17.53;10.27;;;;;;;21.59;66.67;97851.41;8251598;28;20230;-79
2022/08/28 02:08:38;;;;;;;15.83;10.07;;;;;;;21.49;66.61;97855.84;8251228;28;20345;-79
2022/08/28 02:12:43;;;;;;;16.60;10.00;;;;;;;21.59;66.50;97848.78;8251047;28;20248;-79
2022/08/28 02:16:46;;;;;;;12.53;9.80;;;;;;;21.58;66.37;97856.81;8251186;28;20248;-79
2022/08/28 02:20:49;;;;;;;17.30;10.37;;;;;;;21.63;65.90;97865.13;8250198;28;20242;-78
2022/08/28 02:24:52;;;;;;;14.07;9.60;;;;;;;21.56;66.10;97866.66;8250732;28;20234;-79
2022/08/28 02:28:57;;;;;;;13.40;9.63;;;;;;;21.53;66.78;97864.28;8250814;28;20238;-79
2022/08/28 02:33:00;;;;;;;16.57;10.00;;;;;;;21.57;66.58;97860.41;8250243;28;20249;-79
2022/08/28 02:37:04;;;;;;;14.53;10.10;;;;;;;21.54;66.12;97868.59;8250214;28;20244;-79
2022/08/28 02:41:07;;;;;;;15.50;9.97;;;;;;;21.54;66.17;97868.59;8249918;28;27476;-78
2022/08/28 02:45:13;;;;;;;17.80;9.47;;;;;;;21.45;66.42;97862.34;8250252;28;20245;-79
2022/08/28 02:49:16;;;;;;;16.00;9.37;;;;;;;21.51;66.51;97860.97;8249604;28;20263;-79
2022/08/28 02:53:18;;;;;;;14.43;9.40;;;;;;;21.53;66.27;97851.94;8249663;28;20236;-79
2022/08/28 02:57:21;;;;;;;11.47;8.93;;;;;;;21.53;66.21;97862.47;8249835;28;20242;-79
2022/08/28 03:01:26;;;;;;;12.47;9.20;;;;;;;21.56;66.10;97856.13;8249425;28;20242;-79
2022/08/28 03:05:29;;;;;;;14.80;9.80;;;;;;;21.44;66.09;97861.53;8249651;28;20525;-79
2022/08/28 03:09:31;;;;;;;17.60;9.67;;;;;;;21.46;66.46;97859.59;8248481;28;20230;-79
2022/08/28 03:13:34;;;;;;;15.27;9.77;;;;;;;21.49;65.88;97855.84;8249514;28;20234;-79
2022/08/28 03:17:39;;;;;;;15.20;10.37;;;;;;;21.44;65.92;97856.25;8249356;28;20234;-79
2022/08/28 03:21:43;;;;;;;17.90;9.70;;;;;;;21.44;66.41;97858.91;8249411;28;20587;-79
2022/08/28 03:25:46;;;;;;;17.57;9.20;;;;;;;21.46;66.45;97864.03;8249240;28;20293;-79
2022/08/28 03:29:49;;;;;;;13.20;9.23;;;;;;;21.41;65.99;97859.13;8249090;28;20233;-79
2022/08/28 03:33:56;;;;;;;14.03;9.63;;;;;;;21.43;66.60;97861.63;8249558;28;20241;-79
2022/08/28 03:37:58;;;;;;;15.40;9.40;;;;;;;21.42;66.47;97863.44;8249708;28;20284;-79
2022/08/28 03:42:01;;;;;;;18.10;10.40;;;;;;;21.45;66.15;97863.19;8249790;28;20248;-79
2022/08/28 03:46:05;;;;;;;13.83;9.50;;;;;;;21.40;66.35;97870.66;8249862;28;20361;-79
2022/08/28 03:50:11;;;;;;;15.27;9.80;;;;;;;21.44;66.66;97869.44;8249736;28;20237;-79
2022/08/28 03:54:14;;;;;;;14.20;9.83;;;;;;;21.43;66.66;97870.38;8249445;28;20233;-79
2022/08/28 03:58:18;;;;;;;15.20;9.77;;;;;;;21.43;66.57;97869.53;8249631;28;20226;-79
2022/08/28 04:02:21;;;;;;;17.43;9.53;;;;;;;21.44;66.48;97866.81;8249586;28;20411;-79
2022/08/28 04:06:26;;;;;;;13.53;10.23;;;;;;;21.42;66.41;97873.97;8249669;28;20233;-79
2022/08/28 04:10:30;;;;;;;14.07;9.93;;;;;;;21.41;66.73;97888.09;8249569;28;20237;-79
2022/08/28 04:14:33;;;;;;;12.87;9.10;;;;;;;21.45;66.29;97883.44;8249506;28;20245;-79
2022/08/28 04:18:37;;;;;;;15.37;9.90;;;;;;;21.43;66.66;97880.91;8249449;28;20230;-79
2022/08/28 04:22:42;;;;;;;14.10;10.00;;;;;;;21.41;66.91;97882.84;8254649;28;20246;-79
2022/08/28 04:26:46;;;;;;;11.07;9.10;;;;;;;21.39;66.67;97882.16;8255003;28;20234;-79
2022/08/28 04:30:53;;;;;;;12.07;9.27;;;;;;;21.37;66.58;97880.63;8254460;28;20241;-79
2022/08/28 04:34:56;;;;;;;12.63;9.80;;;;;;;21.33;66.71;97885.34;8254408;28;20245;-79
2022/08/28 04:39:00;;;;;;;12.83;9.40;;;;;;;21.40;66.14;97893.50;8254641;28;20253;-79
2022/08/28 04:43:03;;;;;;;12.17;9.10;;;;;;;21.41;66.55;97896.00;8254619;28;20241;-79
2022/08/28 04:47:06;;;;;;;13.10;9.87;;;;;;;21.35;66.32;97898.38;8254255;28;20241;-79
2022/08/28 04:51:13;;;;;;;16.50;9.43;;;;;;;21.38;66.50;97900.72;8254454;28;20233;-79
2022/08/28 04:55:18;;;;;;;14.17;9.97;;;;;;;21.41;66.29;97901.28;8254404;28;20240;-79
2022/08/28 04:59:43;;;;;;;13.07;9.70;;;;;;;21.40;66.44;97902.28;8254140;28;20525;-79
2022/08/28 05:03:46;;;;;;;18.70;10.37;;;;;;;21.38;66.69;97906.00;8254115;28;20234;-79
2022/08/28 05:07:49;;;;;;;17.53;9.53;;;;;;;21.38;66.10;97906.84;8253378;28;20243;-78
2022/08/28 05:11:54;;;;;;;13.83;10.10;;;;;;;21.40;66.29;97909.31;8253908;28;20237;-79
2022/08/28 05:15:57;;;;;;;11.77;9.47;;;;;;;21.31;66.70;97918.06;8253623;28;20245;-79
2022/08/28 05:20:01;;;;;;;11.03;8.60;;;;;;;21.40;66.06;97907.53;8253568;28;20553;-79
2022/08/28 05:24:04;;;;;;;17.50;9.37;;;;;;;21.40;65.99;97915.44;8253188;28;20252;-80
2022/08/28 05:28:09;;;;;;;10.93;8.87;;;;;;;21.42;66.30;97920.56;8253150;28;20551;-79
2022/08/28 05:32:13;;;;;;;14.27;8.53;;;;;;;21.41;65.92;97918.91;8252300;28;20241;-79
2022/08/28 05:36:18;;;;;;;16.10;9.13;;;;;;;21.44;65.89;97918.66;8252644;28;20249;-79
2022/08/28 05:40:21;;;;;;;13.40;9.43;;;;;;;21.41;65.65;97929.44;8253011;28;20242;-79
2022/08/28 05:44:26;;;;;;;14.20;9.07;;;;;;;21.41;65.98;97937.34;8252377;28;20242;-79
2022/08/28 05:48:30;;;;;;;14.07;8.60;;;;;;;21.47;65.34;97937.63;8252916;28;20508;-79
2022/08/28 05:52:40;;;;;;;15.87;8.57;;;;;;;21.45;65.85;97934.31;8252439;28;20261;-80
2022/08/28 05:56:44;;;;;;;14.50;9.03;;;;;;;21.51;65.76;97937.38;8252481;28;20234;-79
2022/08/28 06:00:48;;;;;;;13.37;8.97;;;;;;;21.48;66.13;97938.50;8252467;28;20252;-79
2022/08/28 06:04:52;;;;;;;12.70;9.03;;;;;;;21.50;65.62;97941.81;8251777;28;20226;-79
2022/08/28 06:08:56;;;;;;;15.57;9.27;;;;;;;21.57;65.87;97947.34;8251941;28;20238;-79
2022/08/28 06:13:01;;;;;;;15.90;8.97;;;;;;;21.60;65.48;97944.44;8251789;28;20275;-79
2022/08/28 06:17:06;;;;;;;13.10;8.33;;;;;;;21.61;65.45;97943.47;8252028;28;20436;-79
2022/08/28 06:21:09;;;;;;;12.57;8.33;;;;;;;21.62;65.27;97943.34;8251431;28;20234;-79
2022/08/28 06:25:13;;;;;;;12.83;8.40;;;;;;;21.65;65.24;97953.59;8251507;28;20241;-79
2022/08/28 06:29:18;;;;;;;12.93;8.57;;;;;;;21.67;65.28;97953.47;8251732;28;20245;-79
2022/08/28 06:33:24;;;;;;;14.70;8.47;;;;;;;21.58;65.63;97947.22;8251164;28;20300;-80
2022/08/28 06:37:27;;;;;;;13.73;8.37;;;;;;;21.68;64.96;97957.75;8251116;28;20415;-79
2022/08/28 06:41:31;;;;;;;13.13;7.57;;;;;;;21.82;64.76;97961.81;8251039;28;20453;-79
2022/08/28 06:45:34;;;;;;;11.17;7.80;;;;;;;21.89;64.80;97965.53;8250950;28;20230;-79
2022/08/28 06:49:38;;;;;;;12.43;7.67;;;;;;;21.91;64.60;97974.13;8251092;28;20400;-79
2022/08/28 06:53:42;;;;;;;12.43;7.40;;;;;;;21.95;64.54;97967.63;8250391;28;20238;-79
2022/08/28 06:57:45;;;;;;;12.80;7.40;;;;;;;22.06;64.17;97961.34;8250638;28;20242;-79
2022/08/28 07:01:48;;;;;;;13.83;7.20;;;;;;;22.13;64.19;97970.38;8250250;28;20253;-79
2022/08/28 07:05:57;;;;;;;13.63;7.33;;;;;;;22.28;63.57;97977.91;8250540;28;20246;-80
2022/08/28 07:09:59;;;;;;;12.40;6.87;;;;;;;22.37;63.25;97967.31;8250562;28;20237;-80
2022/08/28 07:14:04;;;;;;;12.23;6.73;;;;;;;22.30;63.30;97974.13;8250348;28;20242;-80
2022/08/28 07:18:07;;;;;;;12.47;7.40;;;;;;;22.25;63.62;97976.34;8250198;28;20241;-80
2022/08/28 07:22:11;;;;;;;13.43;7.30;;;;;;;22.29;63.72;97982.19;8249923;28;20319;-80
2022/08/28 07:26:17;;;;;;;10.27;6.70;;;;;;;22.36;63.53;97981.47;8250016;28;20293;-80
2022/08/28 07:30:20;;;;;;;12.20;7.20;;;;;;;22.49;62.60;97980.34;8249884;28;20234;-79
2022/08/28 07:34:23;;;;;;;13.37;6.90;;;;;;;22.68;62.06;97980.28;8249929;28;20248;-79
2022/08/28 07:38:30;;;;;;;15.13;6.90;;;;;;;22.80;61.83;97988.84;8249885;28;20245;-80
2022/08/28 07:46:54;;;;;;;14.30;6.73;;;;;;;22.72;61.92;97999.31;8249333;28;20230;-78
2022/08/28 07:50:57;;;;;;;15.27;7.10;;;;;;;22.76;61.75;98008.59;8249790;28;20353;-78
2022/08/28 07:55:01;;;;;;;10.87;6.77;;;;;;;22.84;60.66;98006.88;8251204;28;20244;-79
2022/08/28 07:59:04;;;;;;;12.80;6.53;;;;;;;22.98;60.76;98010.03;8256027;28;20529;-80
2022/08/28 08:03:09;;;;;;;16.57;6.67;;;;;;;23.02;60.21;98008.78;8255969;28;20533;-79
2022/08/28 08:07:13;;;;;;;13.63;6.30;;;;;;;23.21;59.56;98006.06;8255801;28;20249;-80
2022/08/28 08:11:19;;;;;;;14.23;6.87;;;;;;;23.32;58.81;98012.97;8255850;28;20244;-79
2022/08/28 08:15:25;;;;;;;13.63;5.73;;;;;;;23.64;57.13;98016.09;8255391;28;20238;-80
2022/08/28 08:19:33;;;;;;;16.50;6.57;;;;;;;23.65;56.75;98013.31;8255208;28;20231;-80
2022/08/28 08:23:37;;;;;;;11.47;6.03;;;;;;;23.84;56.71;98012.38;8254815;28;20292;-80
2022/08/28 08:27:42;;;;;;;11.10;5.43;;;;;;;23.87;56.51;98014.72;8255209;28;20241;-81
2022/08/28 08:31:44;;;;;;;11.77;5.70;;;;;;;23.88;56.18;98024.31;8254933;28;20260;-80
2022/08/28 08:35:47;;;;;;;11.20;5.77;;;;;;;24.10;54.51;98020.34;8254337;28;20232;-78
2022/08/28 08:39:52;;;;;;;11.57;5.33;;;;;;;24.41;53.97;98027.91;8254768;28;20230;-80
2022/08/28 08:44:01;;;;;;;11.53;5.47;;;;;;;24.55;54.06;98035.31;8254738;28;20247;-80
2022/08/28 08:48:04;;;;;;;9.87;5.17;;;;;;;24.27;54.05;98031.91;8254554;28;20423;-80
2022/08/28 08:52:21;;;;;;;11.00;5.20;;;;;;;24.36;54.62;98038.94;8254504;28;20351;-80
2022/08/28 08:56:24;;;;;;;11.67;5.20;;;;;;;24.43;54.78;98036.53;8254472;28;20247;-80
2022/08/28 09:00:47;;;;;;;10.50;5.47;;;;;;;24.45;54.32;98037.19;8254030;28;20247;-80
2022/08/28 09:04:53;;;;;;;10.40;5.50;;;;;;;24.61;53.57;98039.16;8253638;28;20249;-79
2022/08/28 09:09:00;;;;;;;11.33;5.40;;;;;;;25.17;52.44;98043.13;8254208;28;20236;-79
2022/08/28 09:13:07;;;;;;;8.60;5.40;;;;;;;25.39;52.09;98045.38;8253721;28;20259;-80
2022/08/28 09:17:12;;;;;;;10.07;5.83;;;;;;;25.64;51.18;98044.44;8253834;28;20337;-80
2022/08/28 09:21:24;;;;;;;8.93;5.03;;;;;;;26.77;49.77;98045.72;8253439;28;20435;-80
2022/08/28 09:25:52;;;;;;;9.07;4.77;;;;;;;27.04;46.87;98036.53;8253346;28;20326;-80
2022/08/28 09:29:57;;;;;;;8.27;4.77;;;;;;;27.54;47.39;98048.63;8253121;28;20253;-80
2022/08/28 09:34:22;;;;;;;11.87;5.00;;;;;;;27.42;47.02;98039.41;8253212;28;20244;-80
2022/08/28 09:38:25;;;;;;;9.03;4.70;;;;;;;28.13;46.79;98040.13;8253007;28;20234;-81
2022/08/28 09:47:04;;;;;;;9.10;4.77;;;;;;;28.61;44.44;98040.75;8091976;29;20248;-81
2022/08/28 09:51:11;;;;;;;7.80;4.47;;;;;;;27.63;45.18;98042.28;8164561;28;20250;-80
2022/08/28 09:55:20;;;;;;;7.13;4.10;;;;;;;27.17;47.18;98041.28;8252663;28;20238;-81
2022/08/28 09:59:24;;;;;;;13.73;4.93;;;;;;;27.09;47.25;98037.66;8252600;28;20237;-80
2022/08/28 10:03:30;;;;;;;13.10;5.10;;;;;;;27.31;46.97;98048.56;8252011;28;20244;-81
2022/08/28 10:07:38;;;;;;;7.93;5.20;;;;;;;27.25;47.29;98042.13;8252184;28;20260;-81
2022/08/28 10:11:47;;;;;;;9.10;5.00;;;;;;;27.11;47.72;98042.78;8252173;28;20240;-81
2022/08/28 10:16:00;;;;;;;7.90;4.80;;;;;;;27.04;47.82;98047.16;8251596;28;20248;-80
2022/08/28 10:20:11;;;;;;;9.33;5.33;;;;;;;27.22;47.48;98046.91;8251045;28;20240;-81
2022/08/28 10:24:24;;;;;;;11.23;5.13;;;;;;;27.47;46.56;98043.19;8251194;28;20249;-81
2022/08/28 10:28:37;;;;;;;8.10;4.93;;;;;;;27.71;46.11;98045.91;8251362;28;20232;-81
2022/08/28 10:33:02;;;;;;;7.27;4.73;;;;;;;27.64;45.58;98043.91;8251126;28;20235;-80
2022/08/28 10:37:12;;;;;;;6.40;4.63;;;;;;;27.82;45.42;98040.19;8251050;28;20514;-81
2022/08/28 10:41:20;;;;;;;8.37;4.87;;;;;;;28.21;44.28;98042.72;8250664;28;20233;-81
2022/08/28 10:45:24;;;;;;;7.77;4.30;;;;;;;28.11;44.38;98047.47;8251209;28;20232;-79
2022/08/28 10:49:31;;;;;;;7.50;4.67;;;;;;;28.44;42.02;98047.19;8250536;28;20245;-79
2022/08/28 10:53:38;;;;;;;8.17;4.70;;;;;;;28.21;43.82;98050.72;8250592;28;20234;-79
2022/08/28 10:57:47;;;;;;;8.03;4.50;;;;;;;28.02;43.77;98045.88;8250517;28;20234;-78
2022/08/28 11:01:51;;;;;;;9.13;4.40;;;;;;;27.59;45.72;98048.13;8249891;28;20237;-78
2022/08/28 11:05:59;;;;;;;7.57;4.23;;;;;;;27.48;46.12;98054.66;8250107;28;20299;-78
2022/08/28 11:10:22;;;;;;;10.40;4.50;;;;;;;27.80;44.34;98055.50;8250224;28;20241;-78
2022/08/28 11:14:30;;;;;;;6.60;4.17;;;;;;;28.73;42.42;98053.63;8250027;28;20252;-78
2022/08/28 11:19:03;;;;;;;7.27;4.37;;;;;;;28.02;42.92;98057.34;8249938;28;20417;-79
2022/08/28 11:23:09;;;;;;;6.17;3.93;;;;;;;27.57;43.37;98064.25;8249650;28;20313;-78
2022/08/28 11:27:19;;;;;;;9.10;4.50;;;;;;;27.50;44.84;98060.63;8250001;28;20241;-79
2022/08/28 11:31:33;;;;;;;7.17;4.20;;;;;;;28.15;43.11;98063.94;8249387;28;20434;-79
2022/08/28 11:35:47;;;;;;;8.07;4.33;;;;;;;28.35;42.81;98058.94;8249655;28;20304;-79
2022/08/28 11:39:50;;;;;;;7.87;4.60;;;;;;;28.30;42.77;98063.97;8249314;28;20244;-78
2022/08/28 11:44:27;;;;;;;7.37;4.53;;;;;;;27.64;43.78;98064.38;8249812;28;20241;-78
2022/08/28 11:48:49;;;;;;;7.80;4.00;;;;;;;27.52;43.75;98049.81;8249605;28;20237;-79
2022/08/28 11:53:19;;;;;;;8.60;4.37;;;;;;;28.61;43.52;98053.25;8249407;28;20240;-79
2022/08/28 11:57:25;;;;;;;6.67;4.10;;;;;;;29.23;41.09;98052.94;8250084;28;20497;-79
2022/08/28 12:01:31;;;;;;;8.83;4.23;;;;;;;29.55;39.84;98052.69;8249436;28;20249;-79
2022/08/28 12:05:57;;;;;;;8.10;3.97;;;;;;;30.04;38.99;98053.88;8249453;28;20238;-79
2022/08/28 12:10:00;;;;;;;8.77;4.10;;;;;;;30.27;37.95;98051.84;8244107;28;20523;-79
2022/08/28 12:14:07;;;;;;;8.00;3.83;;;;;;;30.30;37.90;98056.81;8249462;28;20408;-79
2022/08/28 12:18:16;;;;;;;7.90;3.50;;;;;;;30.56;37.33;98050.06;8249072;28;20231;-79
2022/08/28 12:22:23;;;;;;;9.00;4.03;;;;;;;30.79;35.91;98042.63;8249005;28;20239;-80
2022/08/28 12:26:28;;;;;;;7.27;3.70;;;;;;;30.94;36.85;98042.53;8249144;28;20230;-79
2022/08/28 12:30:34;;;;;;;8.30;3.73;;;;;;;31.14;36.00;98031.94;8249332;28;20300;-79
2022/08/28 12:34:48;;;;;;;6.87;3.63;;;;;;;31.28;35.07;98034.69;8249038;28;20245;-79
2022/08/28 12:38:54;;;;;;;7.27;3.57;;;;;;;31.27;33.93;98031.19;8248725;28;20264;-79
2022/08/28 12:42:59;;;;;;;7.70;3.77;;;;;;;31.30;35.16;98027.28;8253281;28;20235;-79
2022/08/28 12:47:01;;;;;;;5.03;3.03;;;;;;;31.35;35.42;98028.34;8254698;28;20319;-79
2022/08/28 12:51:07;;;;;;;10.67;3.87;;;;;;;31.22;34.79;98033.63;8254884;28;20538;-79
2022/08/28 12:55:11;;;;;;;6.73;3.57;;;;;;;31.09;35.55;98017.50;8255833;28;20237;-79
2022/08/28 12:59:23;;;;;;;7.10;3.77;;;;;;;30.90;34.14;98025.25;8254436;28;20232;-79
2022/08/28 13:03:29;;;;;;;6.53;3.47;;;;;;;31.16;33.37;98019.19;8254097;28;20546;-79
2022/08/28 13:07:35;;;;;;;6.70;3.60;;;;;;;31.12;33.81;98022.47;8253838;28;20243;-79
2022/08/28 13:11:40;;;;;;;6.10;3.67;;;;;;;31.26;32.88;98016.16;8253957;28;20530;-79
2022/08/28 13:15:50;;;;;;;6.67;3.77;;;;;;;30.75;34.90;98017.31;8253379;28;20429;-79
2022/08/28 13:20:02;;;;;;;7.17;3.23;;;;;;;29.59;36.90;98024.66;8254998;28;20231;-79
2022/08/28 13:24:26;;;;;;;8.20;3.43;;;;;;;29.23;37.68;98014.78;8256966;28;20252;-79
2022/08/28 13:28:30;;;;;;;5.37;3.60;;;;;;;28.72;38.38;98017.34;8253232;28;20359;-79
2022/08/28 13:32:37;;;;;;;6.13;3.47;;;;;;;28.49;39.67;98020.03;8253342;28;20238;-79
2022/08/28 13:36:44;;;;;;;6.30;4.00;;;;;;;28.29;39.48;98025.84;8189344;29;20238;-79
2022/08/28 13:40:50;;;;;;;11.30;4.53;;;;;;;28.08;41.08;98024.72;8189448;29;20310;-79
2022/08/28 13:45:03;;;;;;;7.53;4.17;;;;;;;27.86;41.62;98021.00;8189155;29;20238;-79
2022/08/28 13:49:06;;;;;;;8.27;4.20;;;;;;;27.82;41.69;98024.22;8189437;28;20233;-79
2022/08/28 13:53:09;;;;;;;7.07;4.10;;;;;;;27.58;42.20;98019.84;8188733;29;20238;-79
2022/08/28 13:57:13;;;;;;;9.47;4.23;;;;;;;27.31;42.12;98019.34;8189219;29;20238;-79
2022/08/28 14:01:20;;;;;;;7.80;4.00;;;;;;;27.42;42.47;98018.13;8188865;28;20564;-79
2022/08/28 14:05:38;;;;;;;5.93;3.90;;;;;;;27.24;43.08;98016.50;8188422;28;20278;-79
2022/08/28 14:09:42;;;;;;;6.93;4.70;;;;;;;27.09;41.96;98019.06;8188373;29;20601;-79
2022/08/28 14:13:45;;;;;;;9.90;3.83;;;;;;;26.98;42.37;98015.94;8188519;29;20240;-79
2022/08/28 14:17:59;;;;;;;8.80;3.93;;;;;;;27.03;42.81;98018.91;8188164;29;20230;-78
2022/08/28 14:22:02;;;;;;;4.93;3.77;;;;;;;27.06;42.95;98018.59;8188415;29;20561;-78
2022/08/28 14:26:06;;;;;;;7.27;4.17;;;;;;;26.91;42.77;98019.28;8188163;28;20405;-79
2022/08/28 14:30:09;;;;;;;6.13;3.73;;;;;;;26.98;42.90;98015.94;8187959;29;20229;-79
2022/08/28 14:34:16;;;;;;;6.33;3.73;;;;;;;26.89;43.14;98015.97;8212430;28;20240;-79
2022/08/28 14:38:19;;;;;;;5.63;3.90;;;;;;;26.93;43.90;98016.47;8251275;28;20236;-79
2022/08/28 14:42:22;;;;;;;7.60;3.80;;;;;;;26.87;44.35;98009.19;8251034;28;20416;-79
2022/08/28 14:46:27;;;;;;;7.93;4.43;;;;;;;26.71;43.81;98015.34;8251226;28;20394;-79
2022/08/28 14:50:31;;;;;;;5.27;3.67;;;;;;;26.68;44.01;98015.69;8251106;28;20459;-79
2022/08/28 14:54:34;;;;;;;8.80;4.43;;;;;;;26.59;43.35;98014.00;8250746;28;20246;-79
2022/08/28 14:58:38;;;;;;;7.67;4.00;;;;;;;26.55;44.20;98010.03;8250827;28;20237;-79
2022/08/28 15:02:40;;;;;;;10.57;5.07;;;;;;;26.48;45.43;98007.22;8250493;28;20233;-79
2022/08/28 15:06:45;;;;;;;23.10;14.87;;;;;;;26.45;44.37;97994.31;8250210;28;20441;-79
2022/08/28 15:10:49;;;;;;;12.40;7.90;;;;;;;26.39;44.60;98002.91;8250036;28;20236;-78
2022/08/28 15:14:53;;;;;;;7.53;5.10;;;;;;;26.28;45.46;97998.78;8250323;28;20237;-79
2022/08/28 15:19:00;;;;;;;6.23;4.33;;;;;;;26.28;45.21;98001.44;8250135;28;20261;-79
2022/08/28 15:23:04;;;;;;;6.60;4.40;;;;;;;26.25;45.26;98001.78;8249709;28;20232;-79
2022/08/28 15:27:07;;;;;;;6.90;4.63;;;;;;;26.19;45.17;97999.78;8249883;28;20253;-78
2022/08/28 15:31:14;;;;;;;9.93;4.70;;;;;;;26.13;45.21;98001.28;8249657;28;20241;-79
2022/08/28 15:35:17;;;;;;;6.90;4.00;;;;;;;26.18;46.18;97990.16;8249734;28;20255;-79
2022/08/28 15:43:42;;;;;;;10.57;4.40;;;;;;;26.01;46.35;97997.28;8249568;28;20240;-79
2022/08/28 15:47:49;;;;;;;8.80;4.60;;;;;;;25.98;46.10;97990.50;8249213;28;20247;-78
2022/08/28 15:51:52;;;;;;;10.33;7.07;;;;;;;25.93;46.80;97991.00;8249569;28;20247;-79
2022/08/28 15:55:57;;;;;;;9.23;5.77;;;;;;;25.97;46.83;97988.84;8249779;28;20239;-79
2022/08/28 15:59:59;;;;;;;9.63;4.50;;;;;;;25.93;46.37;97998.97;8249688;28;20525;-79
2022/08/28 16:04:03;;;;;;;8.57;4.67;;;;;;;25.95;47.07;97990.84;8249495;28;20551;-79
2022/08/28 16:08:05;;;;;;;9.40;4.27;;;;;;;25.88;47.47;98000.41;8249434;28;20549;-79
2022/08/28 16:12:10;;;;;;;6.60;4.30;;;;;;;25.92;46.75;97994.63;8249374;28;20236;-79
2022/08/28 16:16:13;;;;;;;6.07;4.00;;;;;;;25.96;45.74;97989.00;8251348;28;20227;-80
2022/08/28 16:20:16;;;;;;;10.27;4.73;;;;;;;25.92;46.87;97993.81;8255088;28;20251;-79
2022/08/28 16:24:19;;;;;;;7.57;4.43;;;;;;;25.94;47.71;97989.19;8254950;28;20253;-79
2022/08/28 16:28:24;;;;;;;8.83;4.57;;;;;;;25.87;47.97;97993.44;8255124;28;20558;-79
2022/08/28 16:32:29;;;;;;;6.40;4.30;;;;;;;25.93;46.72;97988.34;8255070;28;20581;-80
2022/08/28 16:36:33;;;;;;;7.70;4.47;;;;;;;25.93;46.32;97982.19;8255374;28;20248;-80
2022/08/28 16:40:36;;;;;;;6.80;4.50;;;;;;;25.94;46.59;97989.19;8256069;28;20239;-79
2022/08/28 16:44:41;;;;;;;8.73;4.10;;;;;;;25.86;46.76;97989.16;8254586;28;20230;-80
2022/08/28 16:48:44;;;;;;;9.33;4.53;;;;;;;25.72;46.38;97991.44;8254180;28;20530;-80
2022/08/28 16:52:47;;;;;;;14.20;4.77;;;;;;;25.68;47.70;97989.28;8253407;28;20297;-78
2022/08/28 16:56:50;;;;;;;8.33;4.60;;;;;;;25.64;47.75;97980.81;8253904;28;20237;-79
2022/08/28 17:00:55;;;;;;;8.27;4.70;;;;;;;25.62;47.55;97987.28;8254757;28;20238;-79
2022/08/28 17:05:00;;;;;;;7.07;3.90;;;;;;;25.58;48.66;97988.59;8253928;28;20242;-79
2022/08/28 17:09:03;;;;;;;6.77;4.40;;;;;;;25.55;48.27;97987.09;8253839;28;20259;-79
2022/08/28 17:13:06;;;;;;;6.13;4.60;;;;;;;25.48;48.31;97986.09;8253569;28;20237;-79
2022/08/28 17:17:11;;;;;;;5.83;4.23;;;;;;;25.50;48.32;97989.41;8253582;28;20250;-79
2022/08/28 17:25:34;;;;;;;8.13;4.73;;;;;;;25.40;47.99;97991.34;8253002;28;20241;-79
2022/08/28 17:29:37;;;;;;;7.67;4.17;;;;;;;25.36;48.32;97988.22;8251457;28;20428;-79
2022/08/28 17:33:43;;;;;;;6.77;4.50;;;;;;;25.29;49.55;97985.38;8252746;28;20251;-80
2022/08/28 17:37:46;;;;;;;8.03;4.80;;;;;;;25.26;50.17;97988.34;8252775;28;20439;-79
2022/08/28 17:41:49;;;;;;;7.67;4.57;;;;;;;25.20;50.64;97988.97;8251702;28;20528;-78
2022/08/28 17:45:51;;;;;;;7.47;4.93;;;;;;;25.15;50.26;97991.25;8251825;28;20245;-79
2022/08/28 17:49:56;;;;;;;8.73;4.83;;;;;;;25.16;49.50;97995.56;8251969;28;20251;-79
2022/08/28 17:53:58;;;;;;;9.23;4.97;;;;;;;25.10;51.45;97996.22;8252131;28;20236;-79
2022/08/28 17:58:02;;;;;;;9.47;5.17;;;;;;;25.02;52.12;97998.81;8251474;28;20304;-79
2022/08/28 18:02:05;;;;;;;10.43;5.47;;;;;;;24.96;52.35;98001.13;8251341;28;20248;-79
2022/08/28 18:06:09;;;;;;;9.13;5.00;;;;;;;24.93;52.19;98003.25;8251081;28;20258;-79
2022/08/28 18:10:13;;;;;;;11.73;7.33;;;;;;;24.87;52.88;98006.53;8251808;28;20532;-79
2022/08/28 18:14:16;;;;;;;7.83;5.53;;;;;;;24.82;53.37;98008.81;8250997;28;20241;-79
2022/08/28 18:18:20;;;;;;;9.90;5.80;;;;;;;24.74;53.22;98014.91;8251433;28;20232;-79
2022/08/28 18:22:30;;;;;;;11.40;5.80;;;;;;;24.71;54.52;98017.84;8251029;28;20302;-79
2022/08/28 18:26:33;;;;;;;11.73;8.23;;;;;;;24.64;54.14;98025.59;8250159;28;20234;-79
2022/08/28 18:30:36;;;;;;;13.93;7.43;;;;;;;24.57;54.48;98033.31;8250070;28;20252;-80
2022/08/28 18:34:39;;;;;;;7.77;5.90;;;;;;;24.48;55.00;98036.88;8250910;28;20245;-79
2022/08/28 18:38:43;;;;;;;8.67;5.63;;;;;;;24.40;56.27;98039.47;8250673;28;20237;-79
2022/08/28 18:42:46;;;;;;;7.63;5.87;;;;;;;24.31;56.39;98038.59;8250536;28;20434;-80
2022/08/28 18:46:49;;;;;;;7.27;5.33;;;;;;;24.25;56.27;98044.47;8249769;28;20234;-79
2022/08/28 18:50:53;;;;;;;7.30;5.27;;;;;;;24.10;56.60;98056.56;8250122;28;20234;-79
2022/08/28 18:54:57;;;;;;;11.13;5.50;;;;;;;24.07;57.04;98062.19;8250072;28;20237;-79
2022/08/28 18:59:02;;;;;;;8.40;5.70;;;;;;;23.97;57.33;98065.72;8250148;28;20636;-79
2022/08/28 19:03:05;;;;;;;9.30;5.70;;;;;;;23.95;57.35;98064.19;8250063;28;20451;-80
2022/08/28 19:07:08;;;;;;;8.53;5.93;;;;;;;23.85;58.35;98072.19;8249886;28;20248;-79
2022/08/28 19:11:13;;;;;;;8.97;5.70;;;;;;;23.77;58.61;98061.50;8249602;28;20226;-79
2022/08/28 19:15:17;;;;;;;10.13;6.17;;;;;;;23.77;58.62;98066.81;8249503;28;20229;-80
2022/08/28 19:19:21;;;;;;;10.43;6.07;;;;;;;23.67;58.92;98068.69;8249523;28;20490;-80
2022/08/28 19:23:23;;;;;;;11.10;6.20;;;;;;;23.66;59.11;98080.22;8249295;28;20278;-81
2022/08/28 19:27:28;;;;;;;12.60;6.57;;;;;;;23.62;59.58;98079.69;8250494;28;20243;-83
2022/08/28 19:31:31;;;;;;;12.13;6.13;;;;;;;23.56;59.19;98082.94;8250674;28;20426;-80
2022/08/28 19:35:34;;;;;;;9.83;6.23;;;;;;;23.52;59.44;98073.63;8249158;28;20245;-80